Friday, July 20, 2018, 4:48 AM EDT
Back to Local

KUCP, New Castle, New Castle Municipal Airport

Location: Edinburg, PA, United States Lat: 41.025
Local Time: 4:48 AM EDT ( 8:48 GMT) Lon: -80.413
Time Zone: US/Eastern Elev: 1072 ft

Show me the last for .
Show Decoded

2018-07-20 03:56 METAR KUCP 200756Z AUTO 14004KT 10SM SCT070 20/16 A3003 RMK AO2 SLP175 T02000156
                 =
2018-07-20 02:56 METAR KUCP 200656Z AUTO 15005KT 10SM FEW070 17/16 A3003 RMK AO2 SLP176 T01720161
                 =
2018-07-20 01:56 METAR KUCP 200556Z AUTO 00000KT 10SM SCT065 17/16 A3004 RMK AO2 SLP179 T01720161
                 10272 20161 58002 =
2018-07-20 00:56 METAR KUCP 200456Z AUTO 00000KT 10SM CLR 16/16 A3004 RMK AO2 SLP182 T01610161
                 403000111 =
2018-07-19 23:56 METAR KUCP 200356Z AUTO 00000KT 10SM CLR 17/15 A3005 RMK AO2 SLP184 T01720150 =
2018-07-19 22:56 METAR KUCP 200256Z AUTO 00000KT 10SM CLR 18/15 A3004 RMK AO2 SLP182 T01830150
                 53003 =
2018-07-19 21:56 METAR KUCP 200156Z AUTO 13004KT 10SM CLR 20/15 A3004 RMK AO2 SLP180 T02000150 =
2018-07-19 20:56 METAR KUCP 200056Z AUTO 00000KT 10SM CLR 23/16 A3004 RMK AO2 SLP180 T02280156 =
2018-07-19 19:56 METAR KUCP 192356Z AUTO 12006KT 10SM CLR 28/15 A3003 RMK AO2 SLP178 T02780150
                 10300 20272 58007 =
2018-07-19 18:56 METAR KUCP 192256Z AUTO VRB04KT 10SM CLR 29/14 A3004 RMK AO2 SLP182 T02890139 =
2018-07-19 17:56 METAR KUCP 192156Z AUTO VRB03KT 10SM CLR 29/14 A3005 RMK AO2 SLP185 T02940144 =
2018-07-19 16:56 METAR KUCP 192056Z AUTO VRB04KT 10SM CLR 29/15 A3006 RMK AO2 SLP186 T02940150
                 56015 =
2018-07-19 15:56 METAR KUCP 191956Z AUTO VRB04KT 10SM CLR 28/14 A3007 RMK AO2 SLP190 T02830144 =
2018-07-19 13:56 METAR KUCP 191756Z AUTO 21004KT 10SM CLR 27/13 A3010 RMK AO2 SLP202 T02720128
                 10278 20150 58013 =
2018-07-19 12:56 METAR KUCP 191656Z AUTO 30004KT 10SM CLR 26/13 A3012 RMK AO2 SLP209 T02560128 =
2018-07-19 11:56 METAR KUCP 191556Z AUTO VRB05KT 9SM CLR 26/13 A3013 RMK AO2 SLP211 T02560133 =
2018-07-19 10:56 METAR KUCP 191456Z AUTO 00000KT 10SM CLR 23/15 A3014 RMK AO2 SLP215 T02330150
                 50003 =
2018-07-19 09:56 METAR KUCP 191356Z AUTO 00000KT 10SM CLR 21/16 A3014 RMK AO2 SLP217 T02060161 =
2018-07-19 08:56 METAR KUCP 191256Z AUTO 00000KT 10SM CLR 18/16 A3014 RMK AO2 SLP217 T01780156 =
2018-07-19 07:56 METAR KUCP 191156Z AUTO 00000KT 10SM CLR 15/14 A3013 RMK AO2 SLP213 T01500144
                 10150 20111 53002 =
2018-07-19 06:56 METAR KUCP 191056Z AUTO 00000KT 10SM CLR 13/13 A3012 RMK AO2 SLP210 T01280128 =
2018-07-19 05:56 METAR KUCP 190956Z AUTO 00000KT 8SM CLR 12/12 A3012 RMK AO2 SLP211 T01170117 =
2018-07-19 04:56 METAR KUCP 190856Z AUTO 07003KT 10SM CLR 12/12 A3012 RMK AO2 SLP211 T01220122
                 51007 =

Support USWX by starting your Amazon purchase here.